Monatstabelle

Bitte in den Auwahlmenüs den gewünschte Zeiraum wählen und die Schaltfläche "Anfrage absenden" betätigen. Beginn der Aufzeichnung ist 2007 - Dezember. Vor diesem Zeitraum sind keine Daten verfügbar.

2020 - Februar

 

Datum Temperatur (°C) Luftdruck (hPa) Luftfeuchte (%) Regen
(l/m²)
Wind (km/h)
avg: min: max: avg: min: max: avg: min: max: avg: max:
01.02.2020 10,7 4,3 18,0 1007,5 1005,9 1010,3 68 50 89 0,0 1,2 8,2
02.02.2020 11,6 8,0 16,5 1008,2 1005,6 1012,3 61 46 73 0,0 3,5 17,7
03.02.2020 9,4 8,4 12,3 1010,7 1006,2 1012,1 63 58 69 0,0 10,3 20,8
04.02.2020 5,7 3,6 9,4 1001,3 993,6 1009,9 65 57 80 0,4 17,9 36,7
05.02.2020 1,9 1,2 3,9 1020,0 1005,5 1027,4 68 57 80 0,1 20,1 32,7
06.02.2020 1,3 -4,0 6,6 1023,0 1021,6 1027,4 52 36 76 0,0 4,7 21,7
07.02.2020 1,7 -2,5 7,7 1024,1 1022,9 1025,2 72 47 85 0,0 3,1 15,6
08.02.2020 3,9 -4,5 9,9 1022,8 1022,1 1024,8 69 54 92 0,0 0,0 1,8
09.02.2020 4,1 -4,6 9,1 1016,6 1008,6 1023,4 67 58 93 0,0 4,8 16,7
10.02.2020 9,3 3,6 17,9 1002,8 998,7 1008,6 52 36 67 0,1 5,5 21,4
11.02.2020 4,3 3,5 7,5 1006,1 996,8 1008,9 74 51 85 4,8 4,9 23,2
12.02.2020 3,5 -0,4 8,7 1014,5 1008,6 1017,5 66 44 84 2,6 5,6 18,8
13.02.2020 5,1 -0,3 9,1 1010,0 1004,3 1018,6 71 59 93 1,1 7,8 19,8
14.02.2020 6,3 4,1 10,3 1016,5 1004,5 1022,6 73 55 80 0,0 7,2 21,4
15.02.2020 8,9 3,9 14,0 1022,3 1019,8 1024,6 59 44 80 0,0 9,1 14,2
16.02.2020 8,9 -0,6 15,9 1017,7 1013,7 1021,2 60 42 89 0,0 8,3 20,4
17.02.2020 7,9 0,2 14,7 1014,9 1013,2 1016,9 70 54 89 0,0 2,4 5,5
18.02.2020 7,1 0,6 13,1 1021,3 1016,4 1022,6 58 36 77 0,0 7,4 21,4
19.02.2020 5,5 -0,2 10,6 1016,7 1012,5 1021,8 66 54 77 0,3 9,3 16,9
20.02.2020 6,6 1,6 11,1 1018,3 1014,9 1021,1 50 37 67 0,0 4,9 15,8
21.02.2020 5,6 3,1 9,0 1022,5 1013,0 1025,5 55 40 81 1,5 0,8 18,3
22.02.2020 9,7 -1,8 15,7 1022,0 1018,4 1025,7 40 26 79 0,0 7,6 13,4
23.02.2020 15,2 5,3 18,2 1011,2 1006,6 1019,2 47 36 60 0,0 8,7 18,2
24.02.2020 6,4 4,7 15,8 1014,7 1007,4 1020,9 66 48 84 1,4 2,1 33,6
25.02.2020 9,3 2,1 18,1 1000,0 996,7 1008,6 62 32 83 0,0 2,3 11,6
26.02.2020 4,0 2,9 8,0 997,0 993,5 1000,1 74 58 87 3,4 5,4 10,9
27.02.2020 5,4 2,9 8,2 998,1 992,4 1006,1 47 39 73 0,0 0,6 14,8
28.02.2020 1,6 -2,8 5,8 1012,0 993,6 1016,6 69 44 81 0,5 5,0 28,2
29.02.2020 6,6 -3,8 11,8 1002,3 998,8 1014,9 44 36 77 0,0 6,8 16,4
avg. 6,5 1012,9 62   ---
  Summe Regen: 16,3  
 
Min-Datum 09.02.2020 27.02.2020 22.02.2020 --- ---
Min-Zeit 07:06 22:18 12:50 --- ---
Minimum -4,6 992,4 26 --- ---
 

Max-Datum

23.02.2020 05.02.2020 09.02.2020 11.02.2020 04.02.2020
Max-Zeit 21:38 23:58 09:26 05:10 11:32
Maximum 18,2 1027,4 93 4,8 36,7
 

 

  Letztes Jahr
gleiches Monat
Eistage max < 0°C 0 0
Frosttage min < 0°C 11 15
Sommertage max >=25°C 0 0
Heiße Tage max >=30°C 0 0

 

<<< nach oben >>>